Main page
METAR-TAF:

METAR-TAF

Airports :

Baghdad, Iraq

Baghdad International Airport

latitude: 33-15-45N, longitude: 44-14-04E, elevation: 35 m

Current weather observation

The report was made 54 minutes ago, at 18:00 UTC
Wind 5 kt from the South/Southwest
Temperature 15°C
Humidity 41%
Pressure 1011 hPa
Visibility: 0700 m
Broken clouds at a height of 3000 ft
widespread dust

METAR: ORBI 191800Z 21005KT 0700 DU BKN030 15/02 Q1011 NOSIG

Time: 21:54 (18:54 UTC)

Forecast

The report was made 2 hours and 54 minutes ago, at 16:00 UTC
Forecast valid from 19 at 18 UTC to 20 at 18 UTC
Wind 8 kt from the South
Visibility: 0800 m
Broken clouds at a height of 3000 ft
widespread dust
Becoming
from 20 at 00 UTC to 20 at 02 UTC
Wind 7 kt from the West
Visibility: 3000 m
Becoming
from 20 at 03 UTC to 20 at 05 UTC
Visibility: 5000 m

TAF: ORBI 191600Z 1918/2018 18008KT 0800 DU BKN030 BECMG 2000/2002 27007KT 3000 BECMG 2003/2005 5000 NSC

Weather observations and forecasts of more than 4000 airports (METAR and TAF reports).

The available stations are represented by yellow and red dots on the map.

Hover mouse over dot to see the name of the station.

Then click to see weather observations and forecasts.

To change the map : click on the green buttons with a black cross to zoom in, on the green button with a dash to zoom out, or on the green arrows for adjacent maps.


METAR-TAF: